createdAt,value
2023-01-19T00:00:42.955Z,0
2023-01-19T00:01:43.234Z,0
2023-01-19T00:02:43.518Z,0
2023-01-19T00:03:43.839Z,0
2023-01-19T00:04:44.042Z,0
2023-01-19T00:05:44.220Z,0
2023-01-19T00:06:44.613Z,0
2023-01-19T00:07:44.795Z,0
2023-01-19T00:08:44.969Z,0
2023-01-19T00:09:45.144Z,0
2023-01-19T00:10:45.341Z,0
2023-01-19T00:11:45.528Z,0
2023-01-19T00:12:45.694Z,0
2023-01-19T00:13:45.874Z,0
2023-01-19T00:14:46.049Z,0
2023-01-19T00:15:46.222Z,0
2023-01-19T00:16:46.442Z,0
2023-01-19T00:17:46.603Z,0
2023-01-19T00:18:46.776Z,0
2023-01-19T00:19:46.938Z,0
2023-01-19T00:20:47.121Z,0
2023-01-19T00:21:47.300Z,0
2023-01-19T00:22:47.481Z,0
2023-01-19T00:23:47.676Z,0
2023-01-19T00:24:47.855Z,0
2023-01-19T00:25:48.043Z,0
2023-01-19T00:26:48.221Z,0
2023-01-19T00:27:48.390Z,0
2023-01-19T00:28:48.559Z,0
2023-01-19T00:29:48.743Z,0
2023-01-19T00:30:48.914Z,0
2023-01-19T00:31:49.117Z,0
2023-01-19T00:32:49.420Z,0
2023-01-19T00:33:49.581Z,0
2023-01-19T00:34:49.771Z,0
2023-01-19T00:35:49.953Z,0
2023-01-19T00:36:50.126Z,0
2023-01-19T00:37:50.304Z,0
2023-01-19T00:38:50.498Z,0
2023-01-19T00:39:50.672Z,0
2023-01-19T00:40:50.838Z,0
2023-01-19T00:41:51.010Z,0
2023-01-19T00:42:51.176Z,0
2023-01-19T00:43:51.345Z,0
2023-01-19T00:44:51.509Z,0
2023-01-19T00:45:51.749Z,0
2023-01-19T00:46:52.094Z,0
2023-01-19T00:47:52.264Z,0
2023-01-19T00:48:52.429Z,0
2023-01-19T00:49:52.593Z,0
2023-01-19T00:50:52.811Z,0
2023-01-19T00:51:52.993Z,0
2023-01-19T00:52:53.161Z,0
2023-01-19T00:53:53.336Z,0
2023-01-19T00:54:53.517Z,0
2023-01-19T00:55:53.693Z,0
2023-01-19T00:56:53.859Z,0
2023-01-19T00:57:54.025Z,0
2023-01-19T00:58:54.189Z,0
2023-01-19T00:59:54.356Z,0
2023-01-19T01:00:54.640Z,0
2023-01-19T01:01:55.280Z,0
2023-01-19T01:02:55.962Z,0
2023-01-19T01:03:56.412Z,0
2023-01-19T01:04:56.580Z,0
2023-01-19T01:05:56.822Z,0
2023-01-19T01:06:56.991Z,0
2023-01-19T01:07:57.191Z,0
2023-01-19T01:08:57.371Z,0
2023-01-19T01:09:57.559Z,0
2023-01-19T01:10:57.753Z,0
2023-01-19T01:11:57.946Z,0
2023-01-19T01:13:00.103Z,0
2023-01-19T01:14:27.667Z,0
2023-01-19T01:15:27.912Z,0
2023-01-19T01:16:28.406Z,0
2023-01-19T01:17:28.709Z,0
2023-01-19T01:18:28.902Z,0
2023-01-19T01:19:29.087Z,0
2023-01-19T01:20:29.263Z,0
2023-01-19T01:21:29.464Z,0
2023-01-19T01:22:29.645Z,0
2023-01-19T01:23:29.821Z,0
2023-01-19T01:24:30.002Z,0
2023-01-19T01:25:30.198Z,0
2023-01-19T01:26:30.358Z,0
2023-01-19T01:27:30.535Z,0
2023-01-19T01:28:30.713Z,0
2023-01-19T01:29:30.936Z,0
2023-01-19T01:30:31.123Z,0
2023-01-19T01:31:31.332Z,0
2023-01-19T01:32:31.678Z,0
2023-01-19T01:33:40.232Z,0
2023-01-19T01:34:42.212Z,0
2023-01-19T01:35:42.387Z,0
2023-01-19T01:36:42.556Z,0
2023-01-19T01:37:42.743Z,0
2023-01-19T01:38:43.009Z,0
2023-01-19T01:39:43.265Z,0
2023-01-19T01:40:43.471Z,0
2023-01-19T01:41:43.631Z,0
2023-01-19T01:42:44.916Z,0
2023-01-19T01:43:45.096Z,0
2023-01-19T01:44:45.249Z,0
2023-01-19T01:45:45.441Z,0
2023-01-19T01:46:45.738Z,0
2023-01-19T01:47:45.925Z,0
2023-01-19T01:48:46.113Z,0
2023-01-19T01:49:46.296Z,0
2023-01-19T01:50:46.466Z,0
2023-01-19T01:51:46.637Z,0
2023-01-19T01:53:06.237Z,0
2023-01-19T01:54:08.600Z,0
2023-01-19T01:55:08.806Z,0
2023-01-19T01:56:08.997Z,0
2023-01-19T01:57:09.409Z,0
2023-01-19T01:58:09.589Z,0
2023-01-19T01:59:09.764Z,0
2023-01-19T02:00:09.931Z,0
2023-01-19T02:01:10.194Z,0
2023-01-19T02:02:10.702Z,0
2023-01-19T02:03:11.411Z,0
2023-01-19T02:04:11.708Z,0
2023-01-19T02:05:11.897Z,0
2023-01-19T02:06:12.089Z,0
2023-01-19T02:07:12.262Z,0
2023-01-19T02:08:12.442Z,0
2023-01-19T02:09:12.643Z,0
2023-01-19T02:10:12.826Z,0
2023-01-19T02:11:13.030Z,0
2023-01-19T02:12:13.199Z,0
2023-01-19T02:13:13.378Z,0
2023-01-19T02:14:13.549Z,0
2023-01-19T02:15:13.725Z,0
2023-01-19T02:16:13.898Z,0
2023-01-19T02:17:14.104Z,0
2023-01-19T02:18:14.257Z,0
2023-01-19T02:19:14.426Z,0
2023-01-19T02:20:14.670Z,0
2023-01-19T02:21:14.921Z,0
2023-01-19T02:22:15.111Z,0
2023-01-19T02:23:15.280Z,0
2023-01-19T02:24:15.448Z,0
2023-01-19T02:25:15.616Z,0
2023-01-19T02:26:15.786Z,0
2023-01-19T02:27:15.992Z,0
2023-01-19T02:28:16.157Z,0
2023-01-19T02:29:16.320Z,0
2023-01-19T02:30:16.506Z,0
2023-01-19T02:31:17.001Z,0
2023-01-19T02:32:17.173Z,0
2023-01-19T02:33:17.353Z,0
2023-01-19T02:34:17.531Z,0
2023-01-19T02:35:17.701Z,0
2023-01-19T02:36:17.874Z,0
2023-01-19T02:37:18.054Z,0
2023-01-19T02:38:18.223Z,0
2023-01-19T02:39:18.392Z,0
2023-01-19T02:40:18.555Z,0
2023-01-19T02:41:18.739Z,0
2023-01-19T02:42:18.903Z,0
2023-01-19T02:43:19.069Z,0
2023-01-19T02:44:19.260Z,0
2023-01-19T02:45:19.425Z,0
2023-01-19T02:46:19.711Z,0
2023-01-19T02:47:20.128Z,0
2023-01-19T02:48:20.295Z,0
2023-01-19T02:49:20.475Z,0
2023-01-19T02:50:20.655Z,0
2023-01-19T02:51:20.827Z,0
2023-01-19T02:52:21.001Z,0
2023-01-19T02:53:21.178Z,0
2023-01-19T02:54:21.373Z,0
2023-01-19T02:55:21.564Z,0
2023-01-19T02:56:21.749Z,0
2023-01-19T02:57:21.953Z,0
2023-01-19T02:58:22.180Z,0
2023-01-19T02:59:22.380Z,0
2023-01-19T03:00:22.658Z,0
2023-01-19T03:01:23.013Z,0
2023-01-19T03:02:23.671Z,0
2023-01-19T03:03:24.044Z,0
2023-01-19T03:04:24.216Z,0
2023-01-19T03:05:24.394Z,0
2023-01-19T03:06:24.574Z,0
2023-01-19T03:07:24.744Z,0
2023-01-19T03:08:24.925Z,0
2023-01-19T03:09:25.115Z,0
2023-01-19T03:10:25.277Z,0
2023-01-19T03:11:25.440Z,0
2023-01-19T03:12:25.604Z,0
2023-01-19T03:13:25.798Z,0
2023-01-19T03:14:25.966Z,0
2023-01-19T03:15:26.154Z,0
2023-01-19T03:16:26.505Z,0
2023-01-19T03:17:26.814Z,0
2023-01-19T03:18:26.982Z,0
2023-01-19T03:19:27.258Z,0
2023-01-19T03:20:27.474Z,0
2023-01-19T03:21:27.640Z,0
2023-01-19T03:22:27.807Z,0
2023-01-19T03:23:27.973Z,0
2023-01-19T03:24:28.147Z,0
2023-01-19T03:25:28.316Z,0
2023-01-19T03:26:28.497Z,0
2023-01-19T03:27:28.667Z,0
2023-01-19T03:28:28.858Z,0
2023-01-19T03:29:29.123Z,0
2023-01-19T03:30:29.484Z,0
2023-01-19T03:31:29.648Z,0
2023-01-19T03:32:29.815Z,0
2023-01-19T03:33:29.990Z,0
2023-01-19T03:34:30.155Z,0
2023-01-19T03:35:30.320Z,0
2023-01-19T03:36:30.507Z,0
2023-01-19T03:37:30.674Z,0
2023-01-19T03:38:30.945Z,0
2023-01-19T03:39:31.117Z,0
2023-01-19T03:40:31.292Z,0
2023-01-19T03:41:31.473Z,0
2023-01-19T03:42:31.641Z,0
2023-01-19T03:43:31.820Z,0
2023-01-19T03:44:32.032Z,0
2023-01-19T03:45:32.241Z,0
2023-01-19T03:46:32.407Z,0
2023-01-19T03:47:32.651Z,0
2023-01-19T03:48:32.836Z,0
2023-01-19T03:49:33.021Z,0
2023-01-19T03:50:33.202Z,0
2023-01-19T03:51:33.389Z,0
2023-01-19T03:52:33.571Z,0
2023-01-19T03:53:33.779Z,0
2023-01-19T03:54:33.958Z,0
2023-01-19T03:55:34.150Z,0
2023-01-19T03:56:34.328Z,0
2023-01-19T03:57:34.513Z,0
2023-01-19T03:58:34.712Z,0
2023-01-19T03:59:34.913Z,0
2023-01-19T04:00:35.086Z,0
2023-01-19T04:01:35.326Z,0
2023-01-19T04:02:35.998Z,0
2023-01-19T04:03:36.371Z,0
2023-01-19T04:04:36.547Z,0
2023-01-19T04:05:36.730Z,0
2023-01-19T04:06:36.921Z,0
2023-01-19T04:07:37.110Z,0
2023-01-19T04:08:37.286Z,0
2023-01-19T04:09:37.507Z,0
2023-01-19T04:10:37.682Z,0
2023-01-19T04:11:37.843Z,0
2023-01-19T04:12:38.018Z,0
2023-01-19T04:13:38.203Z,0
2023-01-19T04:14:38.374Z,0
2023-01-19T04:15:38.606Z,0
2023-01-19T04:16:39.018Z,0
2023-01-19T04:17:39.185Z,0
2023-01-19T04:18:39.360Z,0
2023-01-19T04:19:39.536Z,0
2023-01-19T04:20:39.713Z,0
2023-01-19T04:21:39.881Z,0
2023-01-19T04:22:40.078Z,0
2023-01-19T04:23:40.245Z,0
2023-01-19T04:24:40.439Z,0
2023-01-19T04:25:40.606Z,0
2023-01-19T04:26:40.799Z,0
2023-01-19T04:27:40.971Z,0
2023-01-19T04:28:41.280Z,0
2023-01-19T04:29:41.471Z,0
2023-01-19T04:30:41.640Z,0
2023-01-19T04:31:41.825Z,0
2023-01-19T04:32:41.994Z,0
2023-01-19T04:33:42.157Z,0
2023-01-19T04:34:42.330Z,0
2023-01-19T04:35:42.522Z,0
2023-01-19T04:36:42.708Z,0
2023-01-19T04:37:42.892Z,0
2023-01-19T04:38:43.068Z,0
2023-01-19T04:39:43.278Z,0
2023-01-19T04:40:43.449Z,0
2023-01-19T04:41:43.646Z,0
2023-01-19T04:42:43.844Z,0
2023-01-19T04:43:44.026Z,0
2023-01-19T04:44:44.228Z,0
2023-01-19T04:45:44.409Z,0
2023-01-19T04:46:44.657Z,0
2023-01-19T04:47:45.095Z,0
2023-01-19T04:48:45.314Z,0
2023-01-19T04:49:45.513Z,0
2023-01-19T04:50:45.931Z,0
2023-01-19T04:51:46.152Z,0
2023-01-19T04:52:46.336Z,0
2023-01-19T04:53:46.507Z,0
2023-01-19T04:54:46.692Z,0
2023-01-19T04:55:46.938Z,0
2023-01-19T04:56:47.130Z,0
2023-01-19T04:57:47.303Z,0
2023-01-19T04:58:47.485Z,0
2023-01-19T04:59:47.666Z,0
2023-01-19T05:00:47.865Z,0
2023-01-19T05:01:48.256Z,0
2023-01-19T05:02:48.772Z,0
2023-01-19T05:03:49.040Z,0
2023-01-19T05:04:49.211Z,0
2023-01-19T05:05:49.405Z,0
2023-01-19T05:06:49.595Z,0
2023-01-19T05:07:49.796Z,0
2023-01-19T05:08:49.990Z,0
2023-01-19T05:09:50.196Z,0
2023-01-19T05:10:50.373Z,0
2023-01-19T05:11:50.549Z,0
2023-01-19T05:12:50.723Z,0
2023-01-19T05:13:51.557Z,0
2023-01-19T05:14:51.763Z,0
2023-01-19T05:15:51.980Z,0
2023-01-19T05:16:52.386Z,0
2023-01-19T05:17:52.580Z,0
2023-01-19T05:18:52.755Z,0
2023-01-19T05:19:52.924Z,0
2023-01-19T05:20:53.116Z,0
2023-01-19T05:21:53.305Z,0
2023-01-19T05:22:53.487Z,0
2023-01-19T05:23:53.712Z,0
2023-01-19T05:24:53.894Z,0
2023-01-19T05:25:54.060Z,0
2023-01-19T05:26:54.230Z,0
2023-01-19T05:27:54.412Z,0
2023-01-19T05:28:54.591Z,0
2023-01-19T05:29:54.777Z,0
2023-01-19T05:30:54.963Z,0
2023-01-19T05:31:55.264Z,0
2023-01-19T05:32:55.575Z,0
2023-01-19T05:33:55.743Z,0
2023-01-19T05:34:55.930Z,0
2023-01-19T05:35:56.111Z,0
2023-01-19T05:36:56.303Z,0
2023-01-19T05:37:56.498Z,0
2023-01-19T05:38:56.684Z,0
2023-01-19T05:39:56.855Z,0
2023-01-19T05:40:57.030Z,0
2023-01-19T05:41:57.210Z,0
2023-01-19T05:42:57.447Z,0
2023-01-19T05:43:57.815Z,0
2023-01-19T05:44:58.025Z,0
2023-01-19T05:45:58.200Z,0
2023-01-19T05:46:58.443Z,0
2023-01-19T05:47:58.972Z,0
2023-01-19T05:48:59.154Z,0
2023-01-19T05:49:59.349Z,0
2023-01-19T05:50:59.552Z,0
2023-01-19T05:51:59.724Z,0
2023-01-19T05:53:00.385Z,0
2023-01-19T05:54:01.758Z,0
2023-01-19T05:55:01.930Z,0
2023-01-19T05:56:02.121Z,0
2023-01-19T05:57:02.298Z,0
2023-01-19T05:58:02.481Z,0
2023-01-19T05:59:02.661Z,0
2023-01-19T06:00:02.850Z,0
2023-01-19T06:01:03.081Z,0
2023-01-19T06:02:03.470Z,0
2023-01-19T06:03:04.368Z,0
2023-01-19T06:04:05.553Z,0
2023-01-19T06:05:05.719Z,0
2023-01-19T06:06:05.901Z,0
2023-01-19T06:07:06.076Z,0
2023-01-19T06:08:06.254Z,0
2023-01-19T06:09:06.453Z,0
2023-01-19T06:10:06.634Z,0
2023-01-19T06:11:06.806Z,0
2023-01-19T06:12:06.981Z,0
2023-01-19T06:13:07.163Z,0
2023-01-19T06:14:07.350Z,0
2023-01-19T06:15:07.516Z,0
2023-01-19T06:16:07.731Z,0
2023-01-19T06:17:08.008Z,0
2023-01-19T06:18:08.177Z,0
2023-01-19T06:19:08.347Z,0
2023-01-19T06:20:08.545Z,0
2023-01-19T06:21:08.707Z,0
2023-01-19T06:22:08.888Z,0
2023-01-19T06:23:09.059Z,0
2023-01-19T06:24:09.228Z,0
2023-01-19T06:25:09.398Z,0
2023-01-19T06:26:09.667Z,0
2023-01-19T06:27:09.865Z,0
2023-01-19T06:28:10.048Z,0
2023-01-19T06:29:10.214Z,0
2023-01-19T06:30:10.399Z,0
2023-01-19T06:31:10.616Z,0
2023-01-19T06:32:10.829Z,0
2023-01-19T06:33:10.993Z,0
2023-01-19T06:34:11.161Z,0
2023-01-19T06:35:11.328Z,0
2023-01-19T06:36:11.497Z,0
2023-01-19T06:37:11.687Z,0
2023-01-19T06:38:11.872Z,0
2023-01-19T06:39:12.041Z,0
2023-01-19T06:40:13.687Z,0
2023-01-19T06:41:14.994Z,2
2023-01-19T06:42:15.176Z,3
2023-01-19T06:43:15.341Z,4
2023-01-19T06:44:15.518Z,5
2023-01-19T06:45:15.686Z,7
2023-01-19T06:46:16.155Z,9
2023-01-19T06:47:16.729Z,10
2023-01-19T06:48:16.918Z,11
2023-01-19T06:49:17.092Z,13
2023-01-19T06:50:17.262Z,15
2023-01-19T06:51:17.437Z,19
2023-01-19T06:52:17.615Z,21
2023-01-19T06:53:17.825Z,24
2023-01-19T06:54:18.001Z,27
2023-01-19T06:55:18.186Z,30
2023-01-19T06:56:18.461Z,33
2023-01-19T06:57:20.695Z,37
2023-01-19T06:58:20.873Z,41
2023-01-19T06:59:21.048Z,46
2023-01-19T07:00:21.216Z,51
2023-01-19T07:01:21.468Z,58
2023-01-19T07:02:27.153Z,64
2023-01-19T07:03:29.359Z,68
2023-01-19T07:04:29.770Z,71
2023-01-19T07:05:29.952Z,79
2023-01-19T07:06:30.128Z,88
2023-01-19T07:07:30.367Z,96.96
2023-01-19T07:08:30.540Z,96.96
2023-01-19T07:09:30.717Z,110
2023-01-19T07:11:22.518Z,110
2023-01-19T07:12:33.283Z,140
2023-01-19T07:13:33.470Z,150
2023-01-19T07:14:33.839Z,150
2023-01-19T07:15:34.076Z,169.92
2023-01-19T07:16:34.276Z,169.92
2023-01-19T07:17:34.527Z,189.92
2023-01-19T07:18:34.739Z,189.92
2023-01-19T07:19:34.927Z,209.92
2023-01-19T07:20:35.098Z,209.92
2023-01-19T07:21:35.273Z,209.92
2023-01-19T07:22:35.456Z,240
2023-01-19T07:23:35.627Z,240
2023-01-19T07:24:35.813Z,269.92
2023-01-19T07:25:35.983Z,269.92
2023-01-19T07:26:36.147Z,300
2023-01-19T07:27:36.323Z,300
2023-01-19T07:28:36.487Z,329.92
2023-01-19T07:29:36.649Z,329.92
2023-01-19T07:30:36.909Z,329.92
2023-01-19T07:31:37.557Z,369.92
2023-01-19T07:32:38.043Z,369.92
2023-01-19T07:33:38.222Z,369.92
2023-01-19T07:34:38.392Z,369.92
2023-01-19T07:35:38.566Z,409.92
2023-01-19T07:36:38.773Z,409.92
2023-01-19T07:37:38.950Z,459.84
2023-01-19T07:38:39.136Z,459.84
2023-01-19T07:39:39.326Z,509.76
2023-01-19T07:40:39.513Z,509.76
2023-01-19T07:41:39.678Z,509.76
2023-01-19T07:42:39.845Z,509.76
2023-01-19T07:43:40.011Z,509.76
2023-01-19T07:44:40.211Z,509.76
2023-01-19T07:45:40.416Z,509.76
2023-01-19T07:46:40.665Z,509.76
2023-01-19T07:47:40.836Z,509.76
2023-01-19T07:48:41.036Z,509.76
2023-01-19T07:49:41.263Z,549.76
2023-01-19T07:50:41.454Z,549.76
2023-01-19T07:51:41.642Z,549.76
2023-01-19T07:52:41.825Z,549.76
2023-01-19T07:53:42.164Z,549.76
2023-01-19T07:54:42.360Z,609.92
2023-01-19T07:55:42.629Z,609.92
2023-01-19T07:56:42.799Z,609.92
2023-01-19T07:57:42.980Z,609.92
2023-01-19T07:58:43.153Z,609.92
2023-01-19T07:59:43.320Z,679.68
2023-01-19T08:00:43.506Z,679.68
2023-01-19T08:01:43.753Z,679.68
2023-01-19T08:02:44.295Z,679.68
2023-01-19T08:03:44.457Z,679.68
2023-01-19T08:04:44.665Z,679.68
2023-01-19T08:05:45.008Z,679.68
2023-01-19T08:06:45.189Z,679.68
2023-01-19T08:07:45.390Z,679.68
2023-01-19T08:08:45.602Z,679.68
2023-01-19T08:09:45.777Z,659.84
2023-01-19T08:10:45.959Z,659.84
2023-01-19T08:11:46.150Z,729.6
2023-01-19T08:12:46.315Z,729.6
2023-01-19T08:13:46.481Z,819.84
2023-01-19T08:14:46.665Z,819.84
2023-01-19T08:15:46.901Z,819.84
2023-01-19T08:16:47.196Z,909.44
2023-01-19T08:17:47.366Z,909.44
2023-01-19T08:18:47.533Z,909.44
2023-01-19T08:19:47.701Z,909.44
2023-01-19T08:20:48.036Z,1019.52
2023-01-19T08:21:48.232Z,1019.52
2023-01-19T08:22:48.432Z,1019.52
2023-01-19T08:23:48.666Z,1019.52
2023-01-19T08:24:50.403Z,1019.52
2023-01-19T08:25:50.723Z,1139.84
2023-01-19T08:26:50.889Z,1139.84
2023-01-19T08:27:51.088Z,1259.52
2023-01-19T08:28:51.263Z,1259.52
2023-01-19T08:29:51.466Z,1399.04
2023-01-19T08:30:51.769Z,1399.04
2023-01-19T08:31:52.263Z,1539.84
2023-01-19T08:32:52.796Z,1539.84
2023-01-19T08:33:52.970Z,1539.84
2023-01-19T08:34:53.147Z,1539.84
2023-01-19T08:35:53.326Z,1539.84
2023-01-19T08:36:53.534Z,1699.84
2023-01-19T08:37:53.867Z,1699.84
2023-01-19T08:38:54.050Z,1879.04
2023-01-19T08:39:54.260Z,2080
2023-01-19T08:40:54.427Z,2298.88
2023-01-19T08:41:54.614Z,2539.52
2023-01-19T08:42:54.781Z,2818.56
2023-01-19T08:43:54.955Z,3138.56
2023-01-19T08:44:58.580Z,3537.92
2023-01-19T08:45:58.974Z,5120
2023-01-19T08:46:59.248Z,5816.32
2023-01-19T08:47:59.415Z,5816.32
2023-01-19T08:48:59.621Z,5816.32
2023-01-19T08:49:59.804Z,5816.32
2023-01-19T08:50:59.977Z,5816.32
2023-01-19T08:52:00.217Z,5816.32
2023-01-19T08:53:00.860Z,5816.32
2023-01-19T08:54:02.491Z,5816.32
2023-01-19T08:55:02.792Z,5816.32
2023-01-19T08:56:02.964Z,5816.32
2023-01-19T08:57:03.236Z,6835.2
2023-01-19T08:58:03.676Z,6835.2
2023-01-19T08:59:09.448Z,6835.2
2023-01-19T09:00:14.221Z,6118.4
2023-01-19T09:01:14.502Z,6118.4
2023-01-19T09:02:15.315Z,6118.4
2023-01-19T09:03:15.714Z,12800
2023-01-19T09:04:16.010Z,12800
2023-01-19T09:05:16.199Z,12800
2023-01-19T09:06:16.407Z,10997.76
2023-01-19T09:07:16.578Z,8437.76
2023-01-19T09:08:16.754Z,7459.84
2023-01-19T09:09:16.953Z,6615.04
2023-01-19T09:10:17.115Z,19200
2023-01-19T09:11:17.314Z,19200
2023-01-19T09:12:17.639Z,19200
2023-01-19T09:13:17.851Z,16793.6
2023-01-19T09:14:18.088Z,14592
2023-01-19T09:15:18.403Z,16394.24
2023-01-19T09:16:18.633Z,18196.48
2023-01-19T09:17:18.946Z,20398.08
2023-01-19T09:18:19.108Z,22589.44
2023-01-19T09:19:19.272Z,22589.44
2023-01-19T09:20:19.446Z,22589.44
2023-01-19T09:21:19.616Z,22589.44
2023-01-19T09:22:19.798Z,24985.6
2023-01-19T09:23:19.995Z,24985.6
2023-01-19T09:24:20.289Z,24985.6
2023-01-19T09:25:20.455Z,24985.6
2023-01-19T09:26:20.627Z,24985.6
2023-01-19T09:27:20.821Z,24985.6
2023-01-19T09:28:20.996Z,21995.52
2023-01-19T09:29:21.548Z,19200
2023-01-19T09:30:21.723Z,17192.96
2023-01-19T09:31:22.017Z,19394.56
2023-01-19T09:32:22.521Z,21585.92
2023-01-19T09:33:22.719Z,23982.08
2023-01-19T09:34:22.904Z,26398.72
2023-01-19T09:35:23.070Z,26398.72
2023-01-19T09:36:23.237Z,26398.72
2023-01-19T09:37:23.411Z,26398.72
2023-01-19T09:38:23.585Z,26398.72
2023-01-19T09:39:23.758Z,26398.72
2023-01-19T09:40:23.931Z,26398.72
2023-01-19T09:41:24.098Z,26398.72
2023-01-19T09:42:24.271Z,26398.72
2023-01-19T09:43:24.468Z,26398.72
2023-01-19T09:44:24.659Z,27586.56
2023-01-19T09:45:24.841Z,27586.56
2023-01-19T09:46:25.028Z,27586.56
2023-01-19T09:47:25.352Z,27586.56
2023-01-19T09:48:25.542Z,27586.56
2023-01-19T09:49:25.721Z,27586.56
2023-01-19T09:50:25.899Z,27586.56
2023-01-19T09:51:26.095Z,27586.56
2023-01-19T09:52:26.266Z,27586.56
2023-01-19T09:53:26.456Z,27586.56
2023-01-19T09:54:26.641Z,28999.68
2023-01-19T09:55:26.844Z,28999.68
2023-01-19T09:56:27.008Z,28999.68
2023-01-19T09:57:27.194Z,28999.68
2023-01-19T09:58:27.377Z,28999.68
2023-01-19T09:59:27.548Z,28999.68
2023-01-19T10:00:27.776Z,32194.56
2023-01-19T10:01:28.297Z,32194.56
2023-01-19T10:02:28.862Z,32194.56
2023-01-19T10:03:29.140Z,32194.56
2023-01-19T10:04:29.525Z,32194.56
2023-01-19T10:05:29.699Z,32194.56
2023-01-19T10:06:29.874Z,32194.56
2023-01-19T10:07:30.077Z,32194.56
2023-01-19T10:08:30.257Z,32194.56
2023-01-19T10:09:30.428Z,32194.56
2023-01-19T10:10:30.620Z,33996.8
2023-01-19T10:11:38.060Z,33996.8
2023-01-19T10:12:53.512Z,34979.84
2023-01-19T10:13:53.692Z,34979.84
2023-01-19T10:14:53.858Z,34979.84
2023-01-19T10:15:54.043Z,34979.84
2023-01-19T10:16:54.341Z,34979.84
2023-01-19T10:17:54.505Z,34979.84
2023-01-19T10:18:54.674Z,34979.84
2023-01-19T10:19:54.837Z,34979.84
2023-01-19T10:20:55.030Z,35184.64
2023-01-19T10:21:55.824Z,35184.64
2023-01-19T10:22:56.025Z,35184.64
2023-01-19T10:23:56.271Z,35184.64
2023-01-19T10:24:56.455Z,35184.64
2023-01-19T10:25:56.695Z,35184.64
2023-01-19T10:26:57.226Z,35184.64
2023-01-19T10:27:57.410Z,35184.64
2023-01-19T10:28:57.616Z,35184.64
2023-01-19T10:29:57.878Z,35184.64
2023-01-19T10:30:58.116Z,38195.2
2023-01-19T10:31:58.518Z,38195.2
2023-01-19T10:32:59.416Z,38195.2
2023-01-19T10:34:00.895Z,38195.2
2023-01-19T10:35:01.316Z,38195.2
2023-01-19T10:36:01.592Z,38195.2
2023-01-19T10:37:01.827Z,38195.2
2023-01-19T10:38:02.068Z,38195.2
2023-01-19T10:39:02.266Z,33587.2
2023-01-19T10:40:02.539Z,37396.48
2023-01-19T10:41:02.734Z,37396.48
2023-01-19T10:42:03.702Z,37396.48
2023-01-19T10:43:04.417Z,33198.08
2023-01-19T10:44:05.499Z,33198.08
2023-01-19T10:45:05.782Z,36782.08
2023-01-19T10:46:06.040Z,36782.08
2023-01-19T10:47:06.371Z,36782.08
2023-01-19T10:48:06.660Z,36782.08
2023-01-19T10:49:07.041Z,36782.08
2023-01-19T10:50:07.291Z,36782.08
2023-01-19T10:51:07.509Z,40591.36
2023-01-19T10:52:07.782Z,40591.36
2023-01-19T10:53:08.005Z,40591.36
2023-01-19T10:54:08.246Z,40591.36
2023-01-19T10:55:08.492Z,36392.96
2023-01-19T10:56:08.720Z,36392.96
2023-01-19T10:57:08.951Z,36392.96
2023-01-19T10:58:09.177Z,36392.96
2023-01-19T10:59:09.439Z,36392.96
2023-01-19T11:00:09.667Z,36392.96
2023-01-19T11:01:10.035Z,36392.96
2023-01-19T11:02:10.697Z,36392.96
2023-01-19T11:03:11.412Z,36392.96
2023-01-19T11:04:11.812Z,36392.96
2023-01-19T11:05:12.029Z,38789.12
2023-01-19T11:06:12.270Z,38789.12
2023-01-19T11:07:12.461Z,38789.12
2023-01-19T11:08:12.622Z,43376.64
2023-01-19T11:09:12.793Z,47964.16
2023-01-19T11:10:12.957Z,47964.16
2023-01-19T11:11:13.139Z,47964.16
2023-01-19T11:12:13.310Z,60989.44
2023-01-19T11:13:13.509Z,60989.44
2023-01-19T11:14:13.873Z,68567.04
2023-01-19T11:15:14.083Z,68567.04
2023-01-19T11:16:14.286Z,60989.44
2023-01-19T11:17:14.498Z,60989.44
2023-01-19T11:18:14.655Z,60989.44
2023-01-19T11:19:14.830Z,60989.44
2023-01-19T11:20:15.006Z,60989.44
2023-01-19T11:21:15.186Z,60989.44
2023-01-19T11:22:15.401Z,60989.44
2023-01-19T11:23:15.569Z,60989.44
2023-01-19T11:24:15.729Z,60989.44
2023-01-19T11:25:15.888Z,60989.44
2023-01-19T11:26:16.064Z,61972.48
2023-01-19T11:27:16.229Z,61972.48
2023-01-19T11:28:16.392Z,61972.48
2023-01-19T11:29:16.673Z,61972.48
2023-01-19T11:30:16.953Z,61972.48
2023-01-19T11:31:17.449Z,61972.48
2023-01-19T11:32:18.014Z,61972.48
2023-01-19T11:33:18.201Z,61972.48
2023-01-19T11:34:18.359Z,61972.48
2023-01-19T11:35:18.540Z,61972.48
2023-01-19T11:36:18.702Z,65167.36
2023-01-19T11:37:18.880Z,65167.36
2023-01-19T11:38:19.112Z,65167.36
2023-01-19T11:39:19.304Z,65167.36
2023-01-19T11:40:19.491Z,57999.36
2023-01-19T11:41:19.653Z,57999.36
2023-01-19T11:42:19.837Z,52183.04
2023-01-19T11:43:20.021Z,46161.92
2023-01-19T11:44:20.220Z,46161.92
2023-01-19T11:45:20.398Z,46161.92
2023-01-19T11:46:20.606Z,46161.92
2023-01-19T11:47:20.915Z,53370.88
2023-01-19T11:48:21.091Z,58777.6
2023-01-19T11:49:21.271Z,58777.6
2023-01-19T11:50:21.427Z,58777.6
2023-01-19T11:51:21.625Z,58777.6
2023-01-19T11:52:21.839Z,58777.6
2023-01-19T11:53:22.010Z,58777.6
2023-01-19T11:54:22.184Z,58777.6
2023-01-19T11:55:22.365Z,58777.6
2023-01-19T11:56:22.556Z,46366.72
2023-01-19T11:57:22.729Z,41594.88
2023-01-19T11:58:22.921Z,41594.88
2023-01-19T11:59:23.089Z,46571.52
2023-01-19T12:00:23.245Z,46571.52
2023-01-19T12:01:23.493Z,36188.16
2023-01-19T12:02:23.992Z,32399.36
2023-01-19T12:03:24.496Z,41799.68
2023-01-19T12:04:24.798Z,46366.72
2023-01-19T12:05:24.968Z,52183.04
2023-01-19T12:06:25.146Z,57794.56
2023-01-19T12:07:25.314Z,57794.56
2023-01-19T12:08:25.491Z,57794.56
2023-01-19T12:09:25.663Z,57794.56
2023-01-19T12:10:25.834Z,63774.72
2023-01-19T12:11:26.018Z,63774.72
2023-01-19T12:12:26.178Z,63774.72
2023-01-19T12:13:26.358Z,63774.72
2023-01-19T12:14:26.546Z,63774.72
2023-01-19T12:15:26.748Z,63774.72
2023-01-19T12:16:26.944Z,57180.16
2023-01-19T12:17:27.177Z,51363.84
2023-01-19T12:18:27.367Z,51363.84
2023-01-19T12:19:27.535Z,57999.36
2023-01-19T12:20:27.760Z,57999.36
2023-01-19T12:21:28.115Z,57999.36
2023-01-19T12:22:28.290Z,57999.36
2023-01-19T12:23:28.469Z,57999.36
2023-01-19T12:24:28.672Z,57999.36
2023-01-19T12:25:29.122Z,63979.52
2023-01-19T12:26:29.331Z,63979.52
2023-01-19T12:27:29.546Z,63979.52
2023-01-19T12:28:29.720Z,55787.52
2023-01-19T12:29:29.917Z,42967.04
2023-01-19T12:30:30.192Z,37990.4
2023-01-19T12:31:30.676Z,47595.52
2023-01-19T12:32:31.228Z,52387.84
2023-01-19T12:33:31.469Z,52387.84
2023-01-19T12:34:31.736Z,46776.32
2023-01-19T12:35:31.891Z,46776.32
2023-01-19T12:36:32.071Z,46776.32
2023-01-19T12:37:32.283Z,46776.32
2023-01-19T12:38:32.490Z,46776.32
2023-01-19T12:39:32.655Z,52797.44
2023-01-19T12:40:32.842Z,52797.44
2023-01-19T12:41:33.024Z,61194.24
2023-01-19T12:42:33.204Z,61194.24
2023-01-19T12:43:33.391Z,61194.24
2023-01-19T12:44:33.558Z,61194.24
2023-01-19T12:45:33.837Z,61194.24
2023-01-19T12:46:34.061Z,61194.24
2023-01-19T12:47:34.309Z,61194.24
2023-01-19T12:48:34.480Z,61194.24
2023-01-19T12:49:34.650Z,61194.24
2023-01-19T12:50:34.818Z,67584
2023-01-19T12:51:35.029Z,67584
2023-01-19T12:52:35.209Z,58368
2023-01-19T12:53:35.380Z,52183.04
2023-01-19T12:54:35.554Z,52183.04
2023-01-19T12:55:35.713Z,52183.04
2023-01-19T12:56:35.895Z,57589.76
2023-01-19T12:57:36.061Z,57589.76
2023-01-19T12:58:36.230Z,57589.76
2023-01-19T12:59:36.383Z,51773.44
2023-01-19T13:00:36.567Z,46571.52
2023-01-19T13:01:36.897Z,46571.52
2023-01-19T13:02:37.445Z,41594.88
2023-01-19T13:03:37.763Z,41594.88
2023-01-19T13:04:38.007Z,41594.88
2023-01-19T13:05:38.492Z,41594.88
2023-01-19T13:06:38.793Z,37191.68
2023-01-19T13:07:38.966Z,37191.68
2023-01-19T13:08:39.129Z,37191.68
2023-01-19T13:09:39.311Z,37191.68
2023-01-19T13:10:39.516Z,37191.68
2023-01-19T13:11:39.699Z,37191.68
2023-01-19T13:12:39.893Z,28794.88
2023-01-19T13:13:40.120Z,25784.32
2023-01-19T13:14:40.342Z,25784.32
2023-01-19T13:15:40.546Z,25784.32
2023-01-19T13:16:40.790Z,25784.32
2023-01-19T13:17:40.960Z,25784.32
2023-01-19T13:18:41.132Z,25784.32
2023-01-19T13:19:41.326Z,22999.04
2023-01-19T13:20:41.498Z,22999.04
2023-01-19T13:21:44.319Z,25395.2
2023-01-19T13:22:45.318Z,25395.2
2023-01-19T13:23:45.491Z,22589.44
2023-01-19T13:24:45.659Z,17592.32
2023-01-19T13:25:45.840Z,15790.08